Sant Lluis, Spain
Current Conditions -  °F | °C
As of 10:30 AM on Thursday 23 Oct 2014 (Local Time) from LEMH Reporting Station
Few Clouds Few Clouds  
Wind Chill: 66°   Ceiling: Unl
Heat Index: 66°   Visibility: 6mi
Dew Point: 54°   Wind: 10mph
Humidity: 64%   Direction: 310°NW
Pressure: 30.15"   Gusts: NA
Location:  39.85°N, 4.26°E
Report Text: LEMH 230830Z 31009KT 270V350 9999 FEW020 19/12 Q1021
Loading
Personal Weather Stations






























Interactive Weather Map
Tropical Storm Tracking
New forecast layout! Learn more

10-Day Weather Forecast

Advertisements
Track Severe Weather on mobile